Etusivu
METAR-TAF:

METAR-TAF

Lentoasemat :

McMinnville, Oregon, Yhdysvallat

Leveyspiiri: 45-11-46N, Pituuspiiri: 123-07-56W, korkeus merenpinnasta: 48 m

Tämänhetkinen sää

Tämä raportti tehtiin 33 minuuttia sitten, kello 19.53 UTC
Tuuli 8 kn etelästä
Lämpötila 10°C
Kosteus 82%
Ilmanpaine 1017 hPa
Näkyvyys: 16.1 km
Muutamia pilviä 3500 ft:n korkeudessa
Hajonneita pilviä 4600 ft:n korkeudessa
Pilvistä 5500 ft:n korkeudessa
heikkoa sadetta

METAR: KMMV 051953Z AUTO 18008KT 10SM -RA FEW035 BKN046 OVC055 10/07 A3003 RMK AO2 SLP167 P0002 T01000072

Aika: 12:26 (20:26 UTC)


TAF: puuttuu

Säähavainnot ja -ennusteet yli 4000 lentoasemalta (METAR- ja TAF-raportit).

Käytössä olevat sääasemat on merkitty karttaan keltaisilla ja punaisilla pisteillä.

Aseta hiiri pisteen päälle nähdäksesi sääaseman nimen.

Klikkaa sitten nähdäksesi säähavainnot ja -ennusteet.

Kartan vaihtaminen: klikkaa mustalla rastilla varustettuja vihreitä pisteitä, niin voit zoomata sisään; viivalla varustettua vihreää pistettä, niin voit zoomata ulos tai vihreitä nuolia, niin pääset viereisille kartoille.


METAR-TAF: